Weather at Hat Yai International Airport

Public forecast

Using degrees Celsius for public forecast. Weather courtesy of forecast.io.

Current aviation weather report (METAR) for Hat Yai International Airport

Retrieved 2021/04/20 14:00 UTC (9 minutes ago):

VTSS 201400Z 19003KT 090V260 9999 FEW020 27/24 Q1009 NOSIG

Aviation forecast (TAF) for Hat Yai International Airport

Retrieved 2021/04/20 12:36 UTC (2 hours ago):

TAF VTSS 201100Z 2012/2112 23005KT 9999 FEW020 SCT100 TEMPO 2106/2112 VRB10G20KT 4000 TSRA FEW016CB SCT018 BKN100